createdAt,value
2019-03-11T00:01:52.468Z,6.87
2019-03-11T00:06:56.897Z,6.00
2019-03-11T00:12:00.441Z,2.70
2019-03-11T00:17:03.915Z,1.37
2019-03-11T00:22:07.257Z,0.80
2019-03-11T00:27:11.918Z,1.72
2019-03-11T00:32:15.673Z,2.95
2019-03-11T00:37:21.018Z,1.80
2019-03-11T00:42:24.967Z,1.50
2019-03-11T00:47:28.567Z,0.82
2019-03-11T00:52:32.443Z,1.50
2019-03-11T00:57:35.859Z,3.12
2019-03-11T01:02:39.523Z,3.35
2019-03-11T01:07:43.170Z,1.40
2019-03-11T01:12:46.552Z,2.83
2019-03-11T01:17:50.056Z,2.92
2019-03-11T01:22:53.996Z,2.85
2019-03-11T01:27:57.754Z,3.15
2019-03-11T01:33:01.365Z,2.92
2019-03-11T01:38:04.581Z,1.40
2019-03-11T01:43:07.885Z,3.35
2019-03-11T01:48:11.216Z,2.83
2019-03-11T01:53:17.772Z,2.05
2019-03-11T01:58:21.455Z,2.57
2019-03-11T02:03:25.684Z,3.58
2019-03-11T02:08:29.889Z,3.75
2019-03-11T02:13:34.176Z,1.42
2019-03-11T02:18:37.793Z,3.37
2019-03-11T02:23:44.068Z,2.83
2019-03-11T02:29:01.602Z,2.20
2019-03-11T02:34:05.893Z,4.42
2019-03-11T02:39:09.769Z,7.03
2019-03-11T02:44:13.954Z,5.97
2019-03-11T02:49:19.434Z,4.72
2019-03-11T02:54:22.880Z,3.25
2019-03-11T02:59:27.355Z,3.98
2019-03-11T03:04:36.164Z,3.02
2019-03-11T03:09:39.872Z,5.45
2019-03-11T03:14:43.573Z,6.45
2019-03-11T03:19:46.924Z,4.35
2019-03-11T03:24:51.058Z,9.08
2019-03-11T03:29:54.416Z,7.72
2019-03-11T03:34:58.526Z,6.45
2019-03-11T03:40:03.487Z,11.95
2019-03-11T03:45:25.187Z,11.88
2019-03-11T03:50:31.522Z,6.10
2019-03-11T03:55:34.906Z,5.30
2019-03-11T04:00:38.596Z,3.25
2019-03-11T04:05:42.768Z,8.45
2019-03-11T04:10:46.127Z,4.97
2019-03-11T04:15:49.836Z,5.72
2019-03-11T04:20:55.495Z,11.97
2019-03-11T04:25:58.921Z,7.05
2019-03-11T04:31:02.255Z,7.50
2019-03-11T04:36:05.607Z,8.98
2019-03-11T04:41:09.377Z,3.00
2019-03-11T04:46:14.732Z,5.25
2019-03-11T04:51:18.252Z,6.72
2019-03-11T04:56:21.724Z,5.95
2019-03-11T05:01:25.889Z,3.98
2019-03-11T05:06:29.186Z,5.95
2019-03-11T05:11:33.234Z,10.05
2019-03-11T05:16:36.554Z,7.22
2019-03-11T05:21:39.884Z,8.60
2019-03-11T05:26:43.505Z,7.62
2019-03-11T05:31:47.098Z,9.03
2019-03-11T05:36:50.434Z,6.95
2019-03-11T05:41:54.077Z,5.33
2019-03-11T05:46:57.414Z,4.83
2019-03-11T05:52:01.641Z,8.93
2019-03-11T05:57:05.291Z,15.75
2019-03-11T06:02:08.633Z,9.23
2019-03-11T06:07:12.782Z,13.35
2019-03-11T06:12:17.974Z,8.83
2019-03-11T06:17:22.661Z,4.65
2019-03-11T06:22:28.087Z,2.92
2019-03-11T06:27:33.842Z,2.67
2019-03-11T06:32:38.265Z,1.07
2019-03-11T06:37:42.301Z,0.90
2019-03-11T06:42:46.557Z,1.00
2019-03-11T06:47:51.704Z,1.00
2019-03-11T06:52:55.305Z,2.55
2019-03-11T06:58:00.855Z,2.35
2019-03-11T07:03:04.935Z,0.93
2019-03-11T07:08:08.457Z,3.15
2019-03-11T07:13:12.064Z,3.37
2019-03-11T07:18:15.679Z,1.10
2019-03-11T07:23:19.011Z,1.42
2019-03-11T07:28:22.342Z,2.27
2019-03-11T07:33:26.366Z,2.30
2019-03-11T07:38:29.705Z,3.83
2019-03-11T07:43:32.991Z,4.85
2019-03-11T07:48:36.494Z,3.45
2019-03-11T07:53:40.021Z,3.87
2019-03-11T07:58:44.265Z,3.22
2019-03-11T08:03:47.642Z,5.72
2019-03-11T08:08:51.183Z,7.62
2019-03-11T08:13:54.520Z,7.30
2019-03-11T08:18:58.170Z,5.05
2019-03-11T08:24:01.516Z,6.30
2019-03-11T08:29:04.873Z,8.85
2019-03-11T08:34:08.218Z,10.38
2019-03-11T08:39:11.818Z,4.37
2019-03-11T08:44:15.444Z,4.72
2019-03-11T08:49:18.804Z,7.65
2019-03-11T08:54:22.889Z,5.95
2019-03-11T08:59:26.618Z,4.55
2019-03-11T09:04:29.968Z,4.95
2019-03-11T09:09:33.504Z,4.15
2019-03-11T09:14:37.499Z,3.52
2019-03-11T09:19:40.852Z,4.75
2019-03-11T09:24:44.455Z,3.12
2019-03-11T09:29:48.484Z,3.25
2019-03-11T09:34:51.921Z,4.62
2019-03-11T09:39:55.259Z,5.65
2019-03-11T09:44:59.053Z,6.47
2019-03-11T09:50:02.497Z,6.92
2019-03-11T09:55:07.492Z,6.55
2019-03-11T10:00:18.533Z,10.38
2019-03-11T10:05:23.940Z,10.85
2019-03-11T10:10:27.415Z,11.25
2019-03-11T10:15:30.727Z,10.58
2019-03-11T10:20:34.037Z,10.40
2019-03-11T10:25:37.327Z,7.25
2019-03-11T10:30:40.708Z,7.87
2019-03-11T10:35:44.583Z,9.83
2019-03-11T10:40:48.233Z,7.45
2019-03-11T10:45:52.203Z,7.75
2019-03-11T10:50:58.392Z,4.80
2019-03-11T10:56:02.079Z,4.65
2019-03-11T11:01:05.850Z,3.15
2019-03-11T11:06:13.090Z,2.58
2019-03-11T11:11:18.092Z,4.42
2019-03-11T11:16:21.404Z,8.65
2019-03-11T11:21:24.741Z,6.47
2019-03-11T11:26:28.790Z,4.92
2019-03-11T11:31:32.433Z,3.17
2019-03-11T11:36:37.679Z,2.50
2019-03-11T11:41:43.176Z,1.05
2019-03-11T11:46:47.092Z,2.92
2019-03-11T11:51:50.570Z,3.10
2019-03-11T11:56:54.653Z,4.08
2019-03-11T12:02:03.686Z,3.42
2019-03-11T12:07:04.058Z,3.98
2019-03-11T12:12:07.766Z,3.77
2019-03-11T12:17:11.117Z,5.03
2019-03-11T12:22:15.371Z,6.00
2019-03-11T12:27:18.683Z,6.25
2019-03-11T12:32:22.560Z,2.45
2019-03-11T12:37:26.597Z,2.25
2019-03-11T12:42:29.909Z,2.62
2019-03-11T12:47:34.028Z,3.00
2019-03-11T12:52:37.404Z,3.70
2019-03-11T12:57:40.788Z,4.60
2019-03-11T13:02:44.138Z,4.45
2019-03-11T13:07:48.312Z,6.00
2019-03-11T13:12:52.812Z,4.97
2019-03-11T13:18:17.895Z,5.83
2019-03-11T13:23:21.178Z,4.28
2019-03-11T13:28:25.986Z,5.65
2019-03-11T13:33:29.500Z,7.00
2019-03-11T13:38:34.430Z,7.40
2019-03-11T13:43:38.139Z,5.72
2019-03-11T13:48:41.456Z,5.33
2019-03-11T13:53:44.797Z,4.42
2019-03-11T13:58:48.084Z,3.87
2019-03-11T14:03:51.840Z,3.35
2019-03-11T14:08:56.172Z,3.12
2019-03-11T14:14:01.304Z,4.67
2019-03-11T14:19:05.642Z,4.83
2019-03-11T14:24:08.962Z,3.77
2019-03-11T14:29:12.532Z,6.00
2019-03-11T14:34:25.028Z,3.42
2019-03-11T14:39:28.397Z,5.90
2019-03-11T14:44:44.861Z,5.22
2019-03-11T14:49:48.533Z,4.58
2019-03-11T14:54:53.503Z,5.47
2019-03-11T14:59:56.844Z,8.45
2019-03-11T15:05:00.842Z,6.40
2019-03-11T15:10:05.133Z,8.08
2019-03-11T15:15:12.385Z,8.03
2019-03-11T15:25:21.208Z,9.48
2019-03-11T15:30:24.998Z,17.32
2019-03-11T15:35:28.826Z,5.78
2019-03-11T15:40:33.152Z,4.92
2019-03-11T15:45:38.844Z,4.78
2019-03-11T15:50:42.028Z,4.15
2019-03-11T15:55:45.622Z,4.65
2019-03-11T16:00:49.829Z,4.65
2019-03-11T16:05:53.356Z,6.58
2019-03-11T16:10:57.022Z,11.28
2019-03-11T16:16:00.824Z,8.98
2019-03-11T16:21:04.320Z,9.60
2019-03-11T16:26:08.379Z,6.53
2019-03-11T16:31:13.001Z,6.08
2019-03-11T16:36:17.912Z,8.85
2019-03-11T16:41:21.461Z,7.45
2019-03-11T16:46:25.471Z,6.35
2019-03-11T16:51:28.800Z,5.45
2019-03-11T16:56:32.229Z,9.25
2019-03-11T17:01:37.125Z,11.15
2019-03-11T17:06:41.036Z,11.25
2019-03-11T17:11:46.394Z,11.88
2019-03-11T17:16:52.462Z,10.80
2019-03-11T17:21:56.207Z,9.43
2019-03-11T17:27:00.032Z,11.68
2019-03-11T17:32:05.803Z,12.25
2019-03-11T17:37:09.929Z,11.03
2019-03-11T17:42:16.934Z,11.60
2019-03-11T17:47:21.465Z,11.10
2019-03-11T17:52:27.745Z,12.25
2019-03-11T17:57:32.806Z,16.07
2019-03-11T18:02:36.284Z,13.32
2019-03-11T18:07:40.247Z,14.45
2019-03-11T18:12:43.745Z,17.60
2019-03-11T18:17:47.470Z,13.00
2019-03-11T18:22:51.685Z,15.23
2019-03-11T18:27:56.711Z,17.82
2019-03-11T18:33:00.202Z,13.25
2019-03-11T18:38:04.896Z,21.80
2019-03-11T18:43:19.865Z,22.50
2019-03-11T18:48:15.478Z,8.78
2019-03-11T18:53:19.570Z,21.80
2019-03-11T18:58:23.395Z,25.10
2019-03-11T19:03:26.915Z,26.27
2019-03-11T19:08:30.720Z,13.10
2019-03-11T19:13:34.164Z,24.27
2019-03-11T19:18:37.702Z,23.02
2019-03-11T19:23:41.704Z,17.00
2019-03-11T19:28:45.309Z,14.60
2019-03-11T19:33:49.036Z,18.95
2019-03-11T19:38:52.412Z,23.80
2019-03-11T19:43:57.335Z,22.98
2019-03-11T19:49:01.214Z,20.27
2019-03-11T19:54:05.487Z,18.55
2019-03-11T19:59:08.831Z,14.00
2019-03-11T20:04:12.774Z,19.75
2019-03-11T20:09:16.798Z,14.90
2019-03-11T20:14:21.087Z,19.45
2019-03-11T20:19:25.365Z,13.25
2019-03-11T20:24:29.127Z,20.60
2019-03-11T20:29:34.044Z,17.05
2019-03-11T20:34:38.393Z,11.45
2019-03-11T20:39:41.782Z,6.85
2019-03-11T20:44:45.568Z,12.82
2019-03-11T20:49:49.031Z,16.93
2019-03-11T20:54:52.638Z,15.10
2019-03-11T20:59:56.154Z,11.05
2019-03-11T21:05:03.175Z,12.80
2019-03-11T21:10:09.718Z,18.50
2019-03-11T21:15:14.000Z,12.77
2019-03-11T21:20:17.613Z,14.28
2019-03-11T21:25:27.778Z,17.85
2019-03-11T21:30:32.641Z,13.88
2019-03-11T21:35:36.257Z,16.82
2019-03-11T21:40:39.915Z,19.32
2019-03-11T21:45:43.395Z,18.12
2019-03-11T21:50:47.258Z,23.77
2019-03-11T21:55:50.620Z,17.87
2019-03-11T22:00:54.845Z,20.80
2019-03-11T22:05:59.341Z,11.73
2019-03-11T22:11:03.105Z,14.68
2019-03-11T22:16:08.534Z,15.40
2019-03-11T22:21:26.561Z,22.00
2019-03-11T22:26:30.250Z,19.32
2019-03-11T22:31:34.000Z,17.48
2019-03-11T22:36:39.369Z,21.25
2019-03-11T22:41:43.784Z,15.05
2019-03-11T22:46:47.197Z,21.05
2019-03-11T22:51:50.714Z,22.77
2019-03-11T22:56:54.108Z,12.53
2019-03-11T23:01:57.945Z,16.55
2019-03-11T23:07:01.289Z,14.20
2019-03-11T23:12:04.654Z,12.58
2019-03-11T23:17:08.118Z,18.98
2019-03-11T23:22:11.450Z,8.28
2019-03-11T23:27:15.482Z,19.15
2019-03-11T23:32:19.075Z,17.05
2019-03-11T23:37:22.849Z,16.15
2019-03-11T23:42:26.247Z,15.63
2019-03-11T23:47:29.758Z,12.55
2019-03-11T23:52:34.017Z,12.88
2019-03-11T23:57:37.760Z,11.60
